VKG1863 EKRN-LGKP
Flight info
| Callsign | VKG1863 |
|---|---|
| Flight time | 3h 11m |
| Altitude | 37000 |
| Route | ROE DCT OLNED DCT BABKO DCT DEMOP DCT PARAK DCT DONIV DCT OKANA DCT EVIVI DCT MES UN139 MASES |
| Aircraft | A21N/M-SDE2E3FGHIRWXY/LB1 |
Departure
| Time | 2026-05-04 16:32 |
|---|---|
| Airport | Bornholm Airport (EKRN) |
Arrival
| Time | 2026-05-04 19:43 |
|---|---|
| Airport | Karpathos Airport (LGKP) |
| Time | Latitude | Longitude | Altitude | Speed | Heading |
|---|---|---|---|---|---|
| 2026-05-04 16:25 | 55.06869 | 14.74960 | 64 ft | 0 kts | 24° |
| 2026-05-04 16:26 | 55.06849 | 14.74958 | 61 ft | 5 kts | 240° |
| 2026-05-04 16:27 | 55.06774 | 14.74848 | 66 ft | 11 kts | 181° |
| 2026-05-04 16:28 | 55.06543 | 14.75104 | 67 ft | 18 kts | 114° |
| 2026-05-04 16:28 | 55.06375 | 14.75774 | 65 ft | 23 kts | 113° |
| 2026-05-04 16:29 | 55.06086 | 14.76905 | 63 ft | 28 kts | 113° |
| 2026-05-04 16:30 | 55.05994 | 14.77364 | 69 ft | 7 kts | 133° |
| 2026-05-04 16:31 | 55.05983 | 14.77310 | 62 ft | 0 kts | 294° |
| 2026-05-04 16:31 | 55.06401 | 14.75667 | 141 ft | 137 kts | 294° |
| 2026-05-04 16:32 | 55.05938 | 14.71282 | 2054 ft | 170 kts | 222° |
| 2026-05-04 16:33 | 55.03746 | 14.68662 | 3189 ft | 216 kts | 207° |
| 2026-05-04 16:33 | 55.00474 | 14.69801 | 4335 ft | 274 kts | 149° |
| 2026-05-04 16:34 | 54.97285 | 14.73567 | 6212 ft | 282 kts | 150° |
| 2026-05-04 16:34 | 54.95639 | 14.75448 | 7124 ft | 285 kts | 152° |
| 2026-05-04 16:35 | 54.90556 | 14.81117 | 9956 ft | 294 kts | 153° |
| 2026-05-04 16:35 | 54.84917 | 14.87294 | 11739 ft | 337 kts | 153° |
| 2026-05-04 16:36 | 54.82917 | 14.89486 | 12576 ft | 342 kts | 153° |
| 2026-05-04 16:36 | 54.78845 | 14.93938 | 14166 ft | 353 kts | 153° |
| 2026-05-04 16:37 | 54.74635 | 14.98521 | 15663 ft | 361 kts | 153° |
| 2026-05-04 16:37 | 54.72496 | 15.00844 | 16400 ft | 366 kts | 154° |
| 2026-05-04 16:37 | 54.68135 | 15.05573 | 17875 ft | 374 kts | 154° |
| 2026-05-04 16:38 | 54.63664 | 15.10407 | 19214 ft | 382 kts | 154° |
| 2026-05-04 16:39 | 54.56824 | 15.17780 | 21118 ft | 391 kts | 155° |
| 2026-05-04 16:39 | 54.52178 | 15.22774 | 22351 ft | 396 kts | 155° |
| 2026-05-04 16:40 | 54.47496 | 15.27791 | 23517 ft | 402 kts | 155° |
| 2026-05-04 16:40 | 54.42702 | 15.32912 | 24485 ft | 408 kts | 155° |
| 2026-05-04 16:41 | 54.37835 | 15.38097 | 25423 ft | 413 kts | 155° |
| 2026-05-04 16:41 | 54.30452 | 15.45934 | 26753 ft | 421 kts | 155° |
| 2026-05-04 16:42 | 54.22907 | 15.53912 | 27970 ft | 428 kts | 155° |
| 2026-05-04 16:43 | 54.17804 | 15.59287 | 28766 ft | 433 kts | 155° |
| 2026-05-04 16:43 | 54.12642 | 15.64707 | 29519 ft | 438 kts | 155° |
| 2026-05-04 16:43 | 54.10044 | 15.67428 | 29894 ft | 440 kts | 155° |
| 2026-05-04 16:44 | 53.99521 | 15.78408 | 31109 ft | 449 kts | 156° |
| 2026-05-04 16:45 | 53.94164 | 15.83977 | 31656 ft | 453 kts | 156° |
| 2026-05-04 16:46 | 53.86022 | 15.92406 | 32458 ft | 459 kts | 156° |
| 2026-05-04 16:46 | 53.80592 | 15.98005 | 33114 ft | 459 kts | 156° |
| 2026-05-04 16:47 | 53.75133 | 16.03620 | 33763 ft | 458 kts | 156° |
| 2026-05-04 16:47 | 53.69684 | 16.09203 | 34289 ft | 458 kts | 156° |
| 2026-05-04 16:48 | 53.61499 | 16.17558 | 35002 ft | 457 kts | 155° |
| 2026-05-04 16:48 | 53.58814 | 16.20291 | 35227 ft | 456 kts | 155° |
| 2026-05-04 16:49 | 53.53373 | 16.25815 | 35650 ft | 456 kts | 154° |
| 2026-05-04 16:49 | 53.47939 | 16.31318 | 36083 ft | 455 kts | 154° |
| 2026-05-04 16:50 | 53.42511 | 16.36797 | 36471 ft | 455 kts | 154° |
| 2026-05-04 16:50 | 53.37076 | 16.42265 | 36851 ft | 455 kts | 154° |
| 2026-05-04 16:51 | 53.31656 | 16.47700 | 36961 ft | 460 kts | 154° |
| 2026-05-04 16:51 | 53.28899 | 16.50458 | 36948 ft | 464 kts | 154° |
| 2026-05-04 16:52 | 53.17659 | 16.61669 | 36922 ft | 474 kts | 154° |
| 2026-05-04 16:53 | 53.08942 | 16.69410 | 36924 ft | 474 kts | 157° |
| 2026-05-04 16:54 | 52.97255 | 16.79534 | 36917 ft | 475 kts | 157° |
| 2026-05-04 16:55 | 52.80631 | 16.93843 | 36924 ft | 475 kts | 157° |
| 2026-05-04 16:56 | 52.74771 | 16.98864 | 36912 ft | 464 kts | 157° |
| 2026-05-04 16:56 | 52.66364 | 17.06032 | 36915 ft | 450 kts | 157° |
| 2026-05-04 16:57 | 52.58046 | 17.13091 | 36929 ft | 450 kts | 157° |
| 2026-05-04 16:58 | 52.46898 | 17.22505 | 36913 ft | 451 kts | 157° |
| 2026-05-04 17:00 | 52.30138 | 17.36558 | 36928 ft | 451 kts | 157° |
| 2026-05-04 17:01 | 52.16150 | 17.48200 | 36916 ft | 451 kts | 157° |
| 2026-05-04 17:02 | 52.04959 | 17.57451 | 36927 ft | 450 kts | 157° |
| 2026-05-04 17:03 | 51.96602 | 17.64331 | 36927 ft | 452 kts | 157° |
| 2026-05-04 17:03 | 51.88197 | 17.71215 | 36924 ft | 450 kts | 157° |
| 2026-05-04 17:04 | 51.77026 | 17.80326 | 36929 ft | 449 kts | 157° |
| 2026-05-04 17:05 | 51.65820 | 17.89405 | 36932 ft | 450 kts | 157° |
| 2026-05-04 17:06 | 51.57445 | 17.96165 | 36929 ft | 450 kts | 157° |
| 2026-05-04 17:07 | 51.49977 | 18.02166 | 36932 ft | 450 kts | 157° |
| 2026-05-04 17:07 | 51.43424 | 18.07410 | 36938 ft | 453 kts | 157° |
| 2026-05-04 17:08 | 51.35010 | 18.14123 | 36924 ft | 451 kts | 157° |
| 2026-05-04 17:09 | 51.29381 | 18.18598 | 36935 ft | 453 kts | 156° |
| 2026-05-04 17:09 | 51.23752 | 18.23060 | 36936 ft | 452 kts | 157° |
| 2026-05-04 17:10 | 51.09711 | 18.34144 | 36942 ft | 451 kts | 156° |
| 2026-05-04 17:11 | 51.04075 | 18.38567 | 36934 ft | 450 kts | 156° |
| 2026-05-04 17:12 | 50.95650 | 18.45166 | 36941 ft | 450 kts | 156° |
| 2026-05-04 17:13 | 50.81617 | 18.56089 | 36946 ft | 449 kts | 156° |
| 2026-05-04 17:14 | 50.70406 | 18.64762 | 36954 ft | 450 kts | 156° |
| 2026-05-04 17:15 | 50.61976 | 18.71255 | 36959 ft | 449 kts | 156° |
| 2026-05-04 17:16 | 50.50737 | 18.79875 | 36953 ft | 449 kts | 156° |
| 2026-05-04 17:17 | 50.39517 | 18.88428 | 36965 ft | 449 kts | 156° |
| 2026-05-04 17:18 | 50.28263 | 18.96962 | 36966 ft | 449 kts | 156° |
| 2026-05-04 17:19 | 50.17045 | 19.05424 | 36970 ft | 449 kts | 156° |
| 2026-05-04 17:20 | 50.05799 | 19.13870 | 36976 ft | 448 kts | 156° |
| 2026-05-04 17:20 | 49.97366 | 19.20167 | 36990 ft | 448 kts | 156° |
| 2026-05-04 17:21 | 49.86162 | 19.28501 | 37000 ft | 448 kts | 156° |
| 2026-05-04 17:22 | 49.80538 | 19.32668 | 37001 ft | 448 kts | 156° |
| 2026-05-04 17:23 | 49.69277 | 19.40980 | 37017 ft | 447 kts | 156° |
| 2026-05-04 17:24 | 49.60847 | 19.47002 | 37019 ft | 446 kts | 162° |
| 2026-05-04 17:25 | 49.48893 | 19.52110 | 37028 ft | 445 kts | 167° |
| 2026-05-04 17:26 | 49.36948 | 19.57052 | 37040 ft | 444 kts | 170° |
| 2026-05-04 17:27 | 49.21637 | 19.59716 | 37054 ft | 443 kts | 175° |
| 2026-05-04 17:28 | 49.09411 | 19.61821 | 37068 ft | 443 kts | 175° |
| 2026-05-04 17:29 | 48.90983 | 19.64978 | 37068 ft | 445 kts | 176° |
| 2026-05-04 17:31 | 48.75609 | 19.67589 | 37078 ft | 444 kts | 175° |
| 2026-05-04 17:32 | 48.60248 | 19.70187 | 37069 ft | 444 kts | 175° |
| 2026-05-04 17:33 | 48.47983 | 19.72247 | 37062 ft | 444 kts | 175° |
| 2026-05-04 17:34 | 48.35668 | 19.74310 | 37064 ft | 445 kts | 174° |
| 2026-05-04 17:35 | 48.20230 | 19.76877 | 37052 ft | 446 kts | 174° |
| 2026-05-04 17:36 | 48.14095 | 19.77892 | 37054 ft | 446 kts | 174° |
| 2026-05-04 17:36 | 48.07914 | 19.78914 | 37053 ft | 446 kts | 174° |
| 2026-05-04 17:37 | 48.01733 | 19.79934 | 37067 ft | 446 kts | 174° |
| 2026-05-04 17:37 | 47.95553 | 19.80951 | 37056 ft | 447 kts | 174° |
| 2026-05-04 17:38 | 47.89408 | 19.81959 | 37055 ft | 447 kts | 174° |
| 2026-05-04 17:38 | 47.83221 | 19.82971 | 37060 ft | 448 kts | 174° |
| 2026-05-04 17:39 | 47.73919 | 19.84490 | 37065 ft | 448 kts | 174° |
| 2026-05-04 17:39 | 47.67749 | 19.85495 | 37068 ft | 448 kts | 174° |
| 2026-05-04 17:40 | 47.61541 | 19.86505 | 37074 ft | 448 kts | 174° |
| 2026-05-04 17:40 | 47.55342 | 19.87508 | 37068 ft | 448 kts | 174° |
| 2026-05-04 17:41 | 47.49130 | 19.88513 | 37065 ft | 449 kts | 174° |
| 2026-05-04 17:41 | 47.42916 | 19.89515 | 37066 ft | 449 kts | 174° |
| 2026-05-04 17:42 | 47.36735 | 19.90508 | 37075 ft | 449 kts | 174° |
| 2026-05-04 17:42 | 47.31550 | 19.91341 | 37065 ft | 451 kts | 174° |
| 2026-05-04 17:43 | 47.25300 | 19.92342 | 37072 ft | 451 kts | 174° |
| 2026-05-04 17:43 | 47.19055 | 19.93340 | 37079 ft | 451 kts | 174° |
| 2026-05-04 17:44 | 47.12811 | 19.94336 | 37075 ft | 451 kts | 174° |
| 2026-05-04 17:44 | 47.06608 | 19.95322 | 37062 ft | 451 kts | 174° |
| 2026-05-04 17:45 | 47.00357 | 19.96313 | 37062 ft | 451 kts | 174° |
| 2026-05-04 17:45 | 46.94117 | 19.97300 | 37066 ft | 451 kts | 174° |
| 2026-05-04 17:46 | 46.87872 | 19.98287 | 37062 ft | 451 kts | 174° |
| 2026-05-04 17:46 | 46.81605 | 19.99275 | 37055 ft | 453 kts | 174° |
| 2026-05-04 17:47 | 46.75324 | 20.00263 | 37063 ft | 453 kts | 174° |
| 2026-05-04 17:47 | 46.69046 | 20.01246 | 37053 ft | 453 kts | 174° |
| 2026-05-04 17:48 | 46.62809 | 20.02221 | 37056 ft | 453 kts | 174° |
| 2026-05-04 17:48 | 46.56526 | 20.03200 | 37059 ft | 453 kts | 174° |
| 2026-05-04 17:49 | 46.50257 | 20.04182 | 37060 ft | 453 kts | 174° |
| 2026-05-04 17:49 | 46.43987 | 20.05153 | 37059 ft | 453 kts | 174° |
| 2026-05-04 17:50 | 46.37715 | 20.06125 | 37060 ft | 453 kts | 174° |
| 2026-05-04 17:50 | 46.31449 | 20.07096 | 37062 ft | 453 kts | 174° |
| 2026-05-04 17:51 | 46.25218 | 20.08056 | 37062 ft | 453 kts | 174° |
| 2026-05-04 17:51 | 46.18945 | 20.09039 | 37060 ft | 453 kts | 172° |
| 2026-05-04 17:52 | 46.15873 | 20.10044 | 37057 ft | 452 kts | 160° |
| 2026-05-04 17:52 | 46.13005 | 20.11910 | 37070 ft | 452 kts | 151° |
| 2026-05-04 17:52 | 46.07498 | 20.16286 | 37066 ft | 452 kts | 150° |
| 2026-05-04 17:53 | 46.01981 | 20.20641 | 37075 ft | 452 kts | 150° |
| 2026-05-04 17:53 | 45.96426 | 20.24960 | 37073 ft | 454 kts | 150° |
| 2026-05-04 17:54 | 45.90868 | 20.29268 | 37065 ft | 454 kts | 151° |
| 2026-05-04 17:54 | 45.85309 | 20.33563 | 37069 ft | 454 kts | 151° |
| 2026-05-04 17:55 | 45.79778 | 20.37830 | 37071 ft | 454 kts | 151° |
| 2026-05-04 17:55 | 45.74204 | 20.42117 | 37077 ft | 454 kts | 151° |
| 2026-05-04 17:56 | 45.68622 | 20.46405 | 37081 ft | 455 kts | 150° |
| 2026-05-04 17:56 | 45.63067 | 20.50663 | 37077 ft | 456 kts | 150° |
| 2026-05-04 17:57 | 45.57475 | 20.54933 | 37083 ft | 455 kts | 151° |
| 2026-05-04 17:57 | 45.51873 | 20.59192 | 37082 ft | 456 kts | 151° |
| 2026-05-04 17:58 | 45.46279 | 20.63447 | 37088 ft | 456 kts | 150° |
| 2026-05-04 17:58 | 45.40665 | 20.67718 | 37091 ft | 458 kts | 151° |
| 2026-05-04 17:59 | 45.35046 | 20.71970 | 37080 ft | 458 kts | 151° |
| 2026-05-04 18:00 | 45.26636 | 20.78318 | 37080 ft | 458 kts | 151° |
| 2026-05-04 18:00 | 45.21004 | 20.82565 | 37079 ft | 459 kts | 151° |
| 2026-05-04 18:01 | 45.15353 | 20.86819 | 37082 ft | 459 kts | 151° |
| 2026-05-04 18:01 | 45.09724 | 20.91034 | 37081 ft | 459 kts | 151° |
| 2026-05-04 18:02 | 45.01232 | 20.97380 | 37083 ft | 459 kts | 151° |
| 2026-05-04 18:02 | 44.95573 | 21.01598 | 37086 ft | 459 kts | 151° |
| 2026-05-04 18:03 | 44.89955 | 21.05777 | 37090 ft | 457 kts | 151° |
| 2026-05-04 18:03 | 44.84326 | 21.09958 | 37083 ft | 456 kts | 151° |
| 2026-05-04 18:04 | 44.78693 | 21.14123 | 37087 ft | 456 kts | 151° |
| 2026-05-04 18:05 | 44.70277 | 21.20279 | 37088 ft | 456 kts | 152° |
| 2026-05-04 18:05 | 44.64611 | 21.24344 | 37101 ft | 456 kts | 152° |
| 2026-05-04 18:06 | 44.56172 | 21.30381 | 37090 ft | 454 kts | 152° |
| 2026-05-04 18:06 | 44.50539 | 21.34409 | 37084 ft | 454 kts | 152° |
| 2026-05-04 18:07 | 44.44932 | 21.38405 | 37089 ft | 455 kts | 152° |
| 2026-05-04 18:07 | 44.39291 | 21.42424 | 37096 ft | 455 kts | 152° |
| 2026-05-04 18:08 | 44.33638 | 21.46443 | 37104 ft | 456 kts | 152° |
| 2026-05-04 18:08 | 44.27977 | 21.50457 | 37098 ft | 456 kts | 152° |
| 2026-05-04 18:09 | 44.16660 | 21.58450 | 37101 ft | 457 kts | 152° |
| 2026-05-04 18:10 | 44.10990 | 21.62448 | 37123 ft | 457 kts | 152° |
| 2026-05-04 18:10 | 44.05313 | 21.66437 | 37103 ft | 458 kts | 152° |
| 2026-05-04 18:11 | 43.99617 | 21.70431 | 37104 ft | 458 kts | 152° |
| 2026-05-04 18:11 | 43.93918 | 21.74415 | 37104 ft | 458 kts | 152° |
| 2026-05-04 18:12 | 43.88261 | 21.78372 | 37103 ft | 458 kts | 152° |
| 2026-05-04 18:12 | 43.82565 | 21.82336 | 37102 ft | 457 kts | 152° |
| 2026-05-04 18:13 | 43.76878 | 21.86295 | 37104 ft | 457 kts | 152° |
| 2026-05-04 18:14 | 43.68375 | 21.92197 | 37096 ft | 457 kts | 152° |
| 2026-05-04 18:14 | 43.62676 | 21.96137 | 37096 ft | 457 kts | 153° |
| 2026-05-04 18:15 | 43.51262 | 22.04007 | 37091 ft | 459 kts | 153° |
| 2026-05-04 18:16 | 43.45549 | 22.07923 | 37090 ft | 459 kts | 153° |
| 2026-05-04 18:16 | 43.39861 | 22.11830 | 37090 ft | 459 kts | 153° |
| 2026-05-04 18:17 | 43.31265 | 22.17711 | 37097 ft | 459 kts | 153° |
| 2026-05-04 18:18 | 43.22725 | 22.23537 | 37095 ft | 458 kts | 153° |
| 2026-05-04 18:18 | 43.17008 | 22.27429 | 37104 ft | 458 kts | 153° |
| 2026-05-04 18:19 | 43.08447 | 22.33231 | 37114 ft | 459 kts | 153° |
| 2026-05-04 18:19 | 43.02728 | 22.37101 | 37116 ft | 456 kts | 153° |
| 2026-05-04 18:20 | 42.97026 | 22.40952 | 37121 ft | 457 kts | 153° |
| 2026-05-04 18:20 | 42.91319 | 22.44801 | 37119 ft | 458 kts | 153° |
| 2026-05-04 18:21 | 42.85588 | 22.48653 | 37124 ft | 459 kts | 153° |
| 2026-05-04 18:21 | 42.79906 | 22.52508 | 37145 ft | 458 kts | 153° |
| 2026-05-04 18:22 | 42.74221 | 22.56398 | 37135 ft | 456 kts | 153° |
| 2026-05-04 18:22 | 42.68549 | 22.60260 | 37134 ft | 456 kts | 153° |
| 2026-05-04 18:23 | 42.62864 | 22.64123 | 37135 ft | 456 kts | 153° |
| 2026-05-04 18:23 | 42.57221 | 22.67950 | 37131 ft | 456 kts | 153° |
| 2026-05-04 18:24 | 42.51538 | 22.71796 | 37133 ft | 456 kts | 153° |
| 2026-05-04 18:24 | 42.45843 | 22.75639 | 37130 ft | 456 kts | 153° |
| 2026-05-04 18:25 | 42.40160 | 22.79476 | 37137 ft | 455 kts | 153° |
| 2026-05-04 18:25 | 42.34536 | 22.83254 | 37133 ft | 454 kts | 153° |
| 2026-05-04 18:26 | 42.28876 | 22.87052 | 37125 ft | 454 kts | 153° |
| 2026-05-04 18:26 | 42.23204 | 22.90847 | 37124 ft | 455 kts | 153° |
| 2026-05-04 18:27 | 42.17561 | 22.94621 | 37124 ft | 455 kts | 153° |
| 2026-05-04 18:27 | 42.11885 | 22.98406 | 37122 ft | 455 kts | 153° |
| 2026-05-04 18:28 | 42.06191 | 23.02186 | 37122 ft | 455 kts | 153° |
| 2026-05-04 18:28 | 42.00538 | 23.05937 | 37121 ft | 455 kts | 153° |
| 2026-05-04 18:29 | 41.94850 | 23.09711 | 37120 ft | 456 kts | 153° |
| 2026-05-04 18:29 | 41.90117 | 23.12847 | 37126 ft | 454 kts | 153° |
| 2026-05-04 18:30 | 41.81593 | 23.18480 | 37121 ft | 455 kts | 153° |
| 2026-05-04 18:31 | 41.75903 | 23.22224 | 37124 ft | 455 kts | 153° |
| 2026-05-04 18:31 | 41.70247 | 23.25945 | 37115 ft | 455 kts | 153° |
| 2026-05-04 18:32 | 41.64554 | 23.29681 | 37116 ft | 455 kts | 154° |
| 2026-05-04 18:32 | 41.58861 | 23.33413 | 37107 ft | 455 kts | 153° |
| 2026-05-04 18:33 | 41.53166 | 23.37140 | 37107 ft | 455 kts | 154° |
| 2026-05-04 18:33 | 41.47478 | 23.40851 | 37106 ft | 455 kts | 154° |
| 2026-05-04 18:34 | 41.41819 | 23.44534 | 37102 ft | 456 kts | 153° |
| 2026-05-04 18:34 | 41.36321 | 23.48748 | 37100 ft | 456 kts | 148° |
| 2026-05-04 18:35 | 41.30922 | 23.53186 | 37093 ft | 456 kts | 148° |
| 2026-05-04 18:35 | 41.25513 | 23.57616 | 37085 ft | 456 kts | 148° |
| 2026-05-04 18:36 | 41.20099 | 23.62034 | 37085 ft | 456 kts | 148° |
| 2026-05-04 18:36 | 41.14686 | 23.66444 | 37081 ft | 456 kts | 148° |
| 2026-05-04 18:37 | 41.09270 | 23.70851 | 37078 ft | 456 kts | 148° |
| 2026-05-04 18:37 | 41.03884 | 23.75218 | 37088 ft | 456 kts | 148° |
| 2026-05-04 18:38 | 40.98457 | 23.79619 | 37075 ft | 457 kts | 148° |
| 2026-05-04 18:38 | 40.93015 | 23.84017 | 37071 ft | 458 kts | 148° |
| 2026-05-04 18:39 | 40.87575 | 23.88404 | 37066 ft | 458 kts | 148° |
| 2026-05-04 18:39 | 40.82165 | 23.92760 | 37068 ft | 458 kts | 148° |
| 2026-05-04 18:40 | 40.76712 | 23.97144 | 37072 ft | 458 kts | 148° |
| 2026-05-04 18:40 | 40.71256 | 24.01523 | 37068 ft | 458 kts | 148° |
| 2026-05-04 18:41 | 40.65800 | 24.05889 | 37066 ft | 459 kts | 148° |
| 2026-05-04 18:41 | 40.60340 | 24.10250 | 37070 ft | 459 kts | 148° |
| 2026-05-04 18:42 | 40.54869 | 24.14611 | 37071 ft | 460 kts | 148° |
| 2026-05-04 18:42 | 40.49395 | 24.18970 | 37071 ft | 460 kts | 148° |
| 2026-05-04 18:43 | 40.43952 | 24.23291 | 37069 ft | 460 kts | 148° |
| 2026-05-04 18:43 | 40.38468 | 24.27637 | 37075 ft | 460 kts | 148° |
| 2026-05-04 18:44 | 40.32986 | 24.31974 | 37069 ft | 460 kts | 148° |
| 2026-05-04 18:44 | 40.27494 | 24.36315 | 37071 ft | 460 kts | 148° |
| 2026-05-04 18:45 | 40.22030 | 24.40621 | 37081 ft | 461 kts | 148° |
| 2026-05-04 18:45 | 40.16537 | 24.44941 | 37074 ft | 461 kts | 148° |
| 2026-05-04 18:46 | 40.11041 | 24.49252 | 37070 ft | 461 kts | 148° |
| 2026-05-04 18:46 | 40.05542 | 24.53561 | 37076 ft | 460 kts | 148° |
| 2026-05-04 18:47 | 40.00043 | 24.57863 | 37077 ft | 460 kts | 148° |
| 2026-05-04 18:47 | 39.94552 | 24.62151 | 37083 ft | 460 kts | 148° |
| 2026-05-04 18:48 | 39.89045 | 24.66442 | 37079 ft | 461 kts | 148° |
| 2026-05-04 18:48 | 39.83534 | 24.70731 | 37080 ft | 461 kts | 148° |
| 2026-05-04 18:49 | 39.78048 | 24.74984 | 37084 ft | 462 kts | 148° |
| 2026-05-04 18:49 | 39.72523 | 24.79247 | 37084 ft | 461 kts | 148° |
| 2026-05-04 18:50 | 39.67001 | 24.83521 | 37092 ft | 461 kts | 148° |
| 2026-05-04 18:50 | 39.61480 | 24.87781 | 37089 ft | 462 kts | 149° |
| 2026-05-04 18:51 | 39.55951 | 24.92043 | 37096 ft | 462 kts | 149° |
| 2026-05-04 18:51 | 39.50416 | 24.96298 | 37094 ft | 462 kts | 149° |
| 2026-05-04 18:52 | 39.44880 | 25.00548 | 37096 ft | 462 kts | 149° |
| 2026-05-04 18:52 | 39.39334 | 25.04792 | 37097 ft | 463 kts | 149° |
| 2026-05-04 18:53 | 39.33812 | 25.09023 | 37099 ft | 464 kts | 149° |
| 2026-05-04 18:53 | 39.28252 | 25.13279 | 37097 ft | 464 kts | 149° |
| 2026-05-04 18:54 | 39.22692 | 25.17515 | 37100 ft | 464 kts | 149° |
| 2026-05-04 18:54 | 39.17130 | 25.21745 | 37104 ft | 464 kts | 149° |
| 2026-05-04 18:55 | 39.11594 | 25.25942 | 37098 ft | 465 kts | 149° |
| 2026-05-04 18:55 | 39.03229 | 25.32280 | 37107 ft | 465 kts | 149° |
| 2026-05-04 18:56 | 38.97634 | 25.36505 | 37108 ft | 465 kts | 149° |
| 2026-05-04 18:56 | 38.92047 | 25.40717 | 37105 ft | 465 kts | 149° |
| 2026-05-04 18:57 | 38.86457 | 25.44922 | 37113 ft | 466 kts | 149° |
| 2026-05-04 18:57 | 38.80725 | 25.48685 | 37115 ft | 466 kts | 155° |
| 2026-05-04 18:58 | 38.74816 | 25.52125 | 37112 ft | 466 kts | 156° |
| 2026-05-04 18:58 | 38.68909 | 25.55560 | 37113 ft | 466 kts | 155° |
| 2026-05-04 18:59 | 38.62984 | 25.58992 | 37109 ft | 467 kts | 156° |
| 2026-05-04 18:59 | 38.57054 | 25.62418 | 37112 ft | 467 kts | 156° |
| 2026-05-04 19:00 | 38.51127 | 25.65835 | 37111 ft | 468 kts | 156° |
| 2026-05-04 19:00 | 38.45216 | 25.69233 | 37117 ft | 468 kts | 156° |
| 2026-05-04 19:01 | 38.39268 | 25.72655 | 37106 ft | 468 kts | 156° |
| 2026-05-04 19:01 | 38.33323 | 25.76060 | 37119 ft | 468 kts | 156° |
| 2026-05-04 19:02 | 38.27381 | 25.79458 | 37117 ft | 468 kts | 156° |
| 2026-05-04 19:02 | 38.21433 | 25.82860 | 37115 ft | 468 kts | 156° |
| 2026-05-04 19:03 | 38.15519 | 25.86238 | 37108 ft | 469 kts | 156° |
| 2026-05-04 19:03 | 38.09553 | 25.89640 | 37113 ft | 470 kts | 156° |
| 2026-05-04 19:04 | 38.03576 | 25.93031 | 37111 ft | 470 kts | 156° |
| 2026-05-04 19:04 | 37.97607 | 25.96421 | 37114 ft | 470 kts | 155° |
| 2026-05-04 19:05 | 37.91612 | 25.99816 | 37107 ft | 470 kts | 156° |
| 2026-05-04 19:05 | 37.85623 | 26.03203 | 37108 ft | 473 kts | 156° |
| 2026-05-04 19:06 | 37.79654 | 26.06572 | 37103 ft | 473 kts | 156° |
| 2026-05-04 19:06 | 37.73634 | 26.09961 | 37105 ft | 472 kts | 156° |
| 2026-05-04 19:07 | 37.67622 | 26.13346 | 37104 ft | 473 kts | 156° |
| 2026-05-04 19:07 | 37.61610 | 26.16716 | 37106 ft | 473 kts | 156° |
| 2026-05-04 19:08 | 37.55597 | 26.20090 | 37108 ft | 473 kts | 156° |
| 2026-05-04 19:08 | 37.49593 | 26.23448 | 37107 ft | 470 kts | 156° |
| 2026-05-04 19:09 | 37.43686 | 26.26742 | 37113 ft | 464 kts | 156° |
| 2026-05-04 19:09 | 37.37706 | 26.30071 | 37111 ft | 474 kts | 156° |
| 2026-05-04 19:10 | 37.31676 | 26.33425 | 37112 ft | 474 kts | 156° |
| 2026-05-04 19:10 | 37.25632 | 26.36787 | 37112 ft | 474 kts | 156° |
| 2026-05-04 19:11 | 37.19636 | 26.40110 | 37102 ft | 474 kts | 156° |
| 2026-05-04 19:11 | 37.13606 | 26.43446 | 36648 ft | 470 kts | 156° |
| 2026-05-04 19:12 | 37.10585 | 26.45113 | 35566 ft | 479 kts | 156° |
| 2026-05-04 19:12 | 37.04444 | 26.48499 | 34124 ft | 479 kts | 155° |
| 2026-05-04 19:12 | 37.01417 | 26.50169 | 33516 ft | 474 kts | 155° |
| 2026-05-04 19:13 | 36.98415 | 26.51826 | 32942 ft | 468 kts | 155° |
| 2026-05-04 19:13 | 36.95448 | 26.53461 | 32348 ft | 464 kts | 155° |
| 2026-05-04 19:13 | 36.92504 | 26.55081 | 31761 ft | 459 kts | 154° |
| 2026-05-04 19:13 | 36.89628 | 26.56660 | 31167 ft | 456 kts | 155° |
| 2026-05-04 19:14 | 36.86736 | 26.58246 | 30577 ft | 452 kts | 154° |
| 2026-05-04 19:14 | 36.83868 | 26.59821 | 30033 ft | 447 kts | 154° |
| 2026-05-04 19:14 | 36.81035 | 26.61376 | 29347 ft | 444 kts | 154° |
| 2026-05-04 19:14 | 36.79159 | 26.62405 | 28935 ft | 441 kts | 154° |
| 2026-05-04 19:15 | 36.75418 | 26.64458 | 28054 ft | 438 kts | 154° |
| 2026-05-04 19:15 | 36.73576 | 26.65468 | 27634 ft | 436 kts | 154° |
| 2026-05-04 19:15 | 36.69882 | 26.67489 | 26823 ft | 432 kts | 154° |
| 2026-05-04 19:15 | 36.68064 | 26.68483 | 26410 ft | 430 kts | 155° |
| 2026-05-04 19:16 | 36.65331 | 26.69976 | 25840 ft | 427 kts | 155° |
| 2026-05-04 19:16 | 36.62611 | 26.71459 | 25259 ft | 425 kts | 155° |
| 2026-05-04 19:16 | 36.59915 | 26.72929 | 24710 ft | 422 kts | 155° |
| 2026-05-04 19:16 | 36.57228 | 26.74392 | 24160 ft | 420 kts | 155° |
| 2026-05-04 19:17 | 36.54560 | 26.75844 | 23610 ft | 418 kts | 155° |
| 2026-05-04 19:17 | 36.51910 | 26.77285 | 23007 ft | 414 kts | 155° |
| 2026-05-04 19:17 | 36.49277 | 26.78714 | 22420 ft | 411 kts | 155° |
| 2026-05-04 19:17 | 36.46669 | 26.80130 | 21879 ft | 406 kts | 155° |
| 2026-05-04 19:18 | 36.44088 | 26.81528 | 21366 ft | 402 kts | 156° |
| 2026-05-04 19:18 | 36.41566 | 26.82894 | 20869 ft | 398 kts | 156° |
| 2026-05-04 19:18 | 36.39046 | 26.84259 | 20417 ft | 392 kts | 156° |
| 2026-05-04 19:18 | 36.36555 | 26.85607 | 19976 ft | 387 kts | 156° |
| 2026-05-04 19:19 | 36.34106 | 26.86932 | 19552 ft | 381 kts | 156° |
| 2026-05-04 19:19 | 36.31690 | 26.88238 | 19146 ft | 377 kts | 156° |
| 2026-05-04 19:19 | 36.29289 | 26.89535 | 18730 ft | 373 kts | 157° |
| 2026-05-04 19:19 | 36.26932 | 26.90806 | 18317 ft | 368 kts | 157° |
| 2026-05-04 19:20 | 36.24587 | 26.92071 | 17887 ft | 364 kts | 157° |
| 2026-05-04 19:20 | 36.22275 | 26.93315 | 17470 ft | 361 kts | 157° |
| 2026-05-04 19:20 | 36.19998 | 26.94543 | 17078 ft | 361 kts | 157° |
| 2026-05-04 19:20 | 36.17698 | 26.95781 | 16698 ft | 360 kts | 157° |
| 2026-05-04 19:21 | 36.15405 | 26.97014 | 16331 ft | 359 kts | 156° |
| 2026-05-04 19:21 | 36.13120 | 26.98242 | 15983 ft | 357 kts | 156° |
| 2026-05-04 19:21 | 36.10847 | 26.99462 | 15627 ft | 356 kts | 156° |
| 2026-05-04 19:21 | 36.08575 | 27.00684 | 15273 ft | 354 kts | 156° |
| 2026-05-04 19:22 | 36.06309 | 27.01899 | 14904 ft | 354 kts | 156° |
| 2026-05-04 19:22 | 36.04050 | 27.03112 | 14536 ft | 354 kts | 156° |
| 2026-05-04 19:22 | 36.01789 | 27.04324 | 14179 ft | 353 kts | 156° |
| 2026-05-04 19:22 | 35.99538 | 27.05529 | 13820 ft | 353 kts | 156° |
| 2026-05-04 19:23 | 35.97320 | 27.06716 | 13428 ft | 349 kts | 156° |
| 2026-05-04 19:23 | 35.95107 | 27.07901 | 13055 ft | 343 kts | 156° |
| 2026-05-04 19:23 | 35.92934 | 27.09060 | 12699 ft | 336 kts | 157° |
| 2026-05-04 19:23 | 35.90804 | 27.10196 | 12354 ft | 330 kts | 157° |
| 2026-05-04 19:24 | 35.88712 | 27.11316 | 12004 ft | 327 kts | 157° |
| 2026-05-04 19:24 | 35.86625 | 27.12431 | 11670 ft | 326 kts | 157° |
| 2026-05-04 19:24 | 35.84545 | 27.13540 | 11339 ft | 325 kts | 157° |
| 2026-05-04 19:24 | 35.82469 | 27.14646 | 11013 ft | 324 kts | 157° |
| 2026-05-04 19:25 | 35.80398 | 27.15748 | 10674 ft | 324 kts | 158° |
| 2026-05-04 19:25 | 35.78328 | 27.16850 | 10356 ft | 324 kts | 157° |
| 2026-05-04 19:25 | 35.76284 | 27.17940 | 10049 ft | 323 kts | 157° |
| 2026-05-04 19:25 | 35.74243 | 27.19026 | 9731 ft | 316 kts | 157° |
| 2026-05-04 19:26 | 35.72234 | 27.20093 | 9362 ft | 312 kts | 157° |
| 2026-05-04 19:26 | 35.70720 | 27.20897 | 9094 ft | 313 kts | 157° |
| 2026-05-04 19:26 | 35.68682 | 27.21978 | 8744 ft | 311 kts | 157° |
| 2026-05-04 19:26 | 35.66721 | 27.23018 | 8525 ft | 302 kts | 157° |
| 2026-05-04 19:27 | 35.64824 | 27.24020 | 8356 ft | 291 kts | 157° |
| 2026-05-04 19:27 | 35.62995 | 27.24985 | 8207 ft | 280 kts | 157° |
| 2026-05-04 19:27 | 35.61240 | 27.25912 | 8071 ft | 269 kts | 157° |
| 2026-05-04 19:27 | 35.59556 | 27.26802 | 7936 ft | 259 kts | 157° |
| 2026-05-04 19:28 | 35.57918 | 27.27667 | 7675 ft | 254 kts | 157° |
| 2026-05-04 19:28 | 35.56297 | 27.28526 | 7350 ft | 253 kts | 156° |
| 2026-05-04 19:28 | 35.54689 | 27.29381 | 7002 ft | 251 kts | 156° |
| 2026-05-04 19:28 | 35.53101 | 27.30223 | 6656 ft | 247 kts | 156° |
| 2026-05-04 19:29 | 35.51523 | 27.31065 | 6337 ft | 246 kts | 156° |
| 2026-05-04 19:29 | 35.49971 | 27.31891 | 6026 ft | 247 kts | 156° |
| 2026-05-04 19:29 | 35.48404 | 27.32717 | 5669 ft | 244 kts | 156° |
| 2026-05-04 19:29 | 35.46841 | 27.33531 | 5244 ft | 244 kts | 156° |
| 2026-05-04 19:30 | 35.45278 | 27.34337 | 4854 ft | 242 kts | 156° |
| 2026-05-04 19:30 | 35.43729 | 27.35136 | 4466 ft | 240 kts | 156° |
| 2026-05-04 19:30 | 35.42220 | 27.35928 | 4231 ft | 231 kts | 156° |
| 2026-05-04 19:30 | 35.40720 | 27.36571 | 3876 ft | 227 kts | 171° |
| 2026-05-04 19:31 | 35.39171 | 27.36502 | 3492 ft | 220 kts | 200° |
| 2026-05-04 19:31 | 35.37823 | 27.35755 | 3131 ft | 208 kts | 222° |
| 2026-05-04 19:31 | 35.36637 | 27.34763 | 2962 ft | 206 kts | 224° |
| 2026-05-04 19:31 | 35.35464 | 27.33792 | 2943 ft | 206 kts | 223° |
| 2026-05-04 19:32 | 35.34275 | 27.32802 | 2945 ft | 207 kts | 226° |
| 2026-05-04 19:32 | 35.33406 | 27.31516 | 2947 ft | 186 kts | 257° |
| 2026-05-04 19:32 | 35.33311 | 27.30091 | 2948 ft | 162 kts | 292° |
| 2026-05-04 19:32 | 35.33793 | 27.28911 | 2832 ft | 150 kts | 311° |
| 2026-05-04 19:33 | 35.34430 | 27.27906 | 2432 ft | 149 kts | 311° |
| 2026-05-04 19:33 | 35.35023 | 27.26836 | 2013 ft | 153 kts | 308° |
| 2026-05-04 19:33 | 35.35588 | 27.25717 | 1732 ft | 154 kts | 307° |
| 2026-05-04 19:33 | 35.36198 | 27.24634 | 1802 ft | 157 kts | 309° |
| 2026-05-04 19:34 | 35.36880 | 27.23574 | 2030 ft | 161 kts | 310° |
| 2026-05-04 19:34 | 35.37534 | 27.22488 | 2122 ft | 159 kts | 309° |
| 2026-05-04 19:34 | 35.38122 | 27.21475 | 2276 ft | 129 kts | 308° |
| 2026-05-04 19:34 | 35.38564 | 27.20676 | 2210 ft | 101 kts | 309° |
| 2026-05-04 19:35 | 35.38976 | 27.19985 | 1838 ft | 100 kts | 310° |
| 2026-05-04 19:35 | 35.39402 | 27.19276 | 1447 ft | 108 kts | 310° |
| 2026-05-04 19:35 | 35.39865 | 27.18523 | 1186 ft | 112 kts | 310° |
| 2026-05-04 19:35 | 35.40330 | 27.17741 | 885 ft | 119 kts | 308° |
| 2026-05-04 19:36 | 35.40788 | 27.16888 | 562 ft | 122 kts | 307° |
| 2026-05-04 19:36 | 35.41256 | 27.16081 | 297 ft | 113 kts | 307° |
| 2026-05-04 19:36 | 35.41724 | 27.15252 | 108 ft | 115 kts | 305° |
| 2026-05-04 19:36 | 35.42155 | 27.14494 | 55 ft | 101 kts | 303° |
| 2026-05-04 19:37 | 35.42620 | 27.13652 | 267 ft | 142 kts | 304° |
| 2026-05-04 19:37 | 35.43179 | 27.12609 | 1308 ft | 153 kts | 306° |
| 2026-05-04 19:37 | 35.43673 | 27.11465 | 2480 ft | 156 kts | 292° |
| 2026-05-04 19:37 | 35.43514 | 27.10097 | 3473 ft | 182 kts | 246° |
| 2026-05-04 19:38 | 35.42459 | 27.09094 | 3673 ft | 212 kts | 204° |
| 2026-05-04 19:38 | 35.40890 | 27.09051 | 3220 ft | 245 kts | 171° |
| 2026-05-04 19:38 | 35.39255 | 27.09865 | 2562 ft | 265 kts | 146° |
| 2026-05-04 19:38 | 35.37805 | 27.11428 | 2193 ft | 290 kts | 127° |
| 2026-05-04 19:39 | 35.36515 | 27.13413 | 2140 ft | 300 kts | 123° |
| 2026-05-04 19:39 | 35.35304 | 27.15486 | 2150 ft | 293 kts | 122° |
| 2026-05-04 19:39 | 35.34293 | 27.17551 | 2176 ft | 267 kts | 106° |
| 2026-05-04 19:39 | 35.34070 | 27.19672 | 1564 ft | 245 kts | 71° |
| 2026-05-04 19:40 | 35.34769 | 27.21357 | 1514 ft | 196 kts | 40° |
| 2026-05-04 19:40 | 35.35527 | 27.22345 | 2001 ft | 126 kts | 29° |
| 2026-05-04 19:40 | 35.36236 | 27.22966 | 2076 ft | 118 kts | 7° |
| 2026-05-04 19:40 | 35.36939 | 27.22781 | 1697 ft | 114 kts | 321° |
| 2026-05-04 19:41 | 35.37519 | 27.22141 | 1597 ft | 110 kts | 315° |
| 2026-05-04 19:41 | 35.38047 | 27.21468 | 1547 ft | 108 kts | 312° |
| 2026-05-04 19:41 | 35.38547 | 27.20740 | 1488 ft | 117 kts | 309° |
| 2026-05-04 19:41 | 35.39033 | 27.19968 | 1269 ft | 115 kts | 308° |
| 2026-05-04 19:42 | 35.39513 | 27.19147 | 965 ft | 122 kts | 306° |
| 2026-05-04 19:42 | 35.40000 | 27.18275 | 767 ft | 124 kts | 307° |
| 2026-05-04 19:42 | 35.40505 | 27.17404 | 529 ft | 126 kts | 304° |
| 2026-05-04 19:42 | 35.40996 | 27.16527 | 335 ft | 124 kts | 305° |
| 2026-05-04 19:43 | 35.41480 | 27.15678 | 125 ft | 114 kts | 305° |
| 2026-05-04 19:43 | 35.41912 | 27.14925 | 67 ft | 101 kts | 303° |
| 2026-05-04 19:43 | 35.42260 | 27.14302 | 40 ft | 68 kts | 303° |
| 2026-05-04 19:43 | 35.42403 | 27.14048 | 41 ft | 3 kts | 308° |
| 2026-05-04 19:44 | 35.42431 | 27.14033 | 41 ft | 6 kts | 5° |
| 2026-05-04 19:44 | 35.42472 | 27.14075 | 41 ft | 9 kts | 59° |
| 2026-05-04 19:44 | 35.42511 | 27.14153 | 40 ft | 12 kts | 58° |
| 2026-05-04 19:44 | 35.42559 | 27.14252 | 40 ft | 15 kts | 59° |
| 2026-05-04 19:45 | 35.42619 | 27.14372 | 39 ft | 18 kts | 58° |
| 2026-05-04 19:45 | 35.42669 | 27.14473 | 36 ft | 9 kts | 58° |
| 2026-05-04 19:45 | 35.42679 | 27.14555 | 36 ft | 12 kts | 131° |
| 2026-05-04 19:45 | 35.42620 | 27.14626 | 33 ft | 11 kts | 133° |
| 2026-05-04 19:46 | 35.42561 | 27.14702 | 33 ft | 13 kts | 134° |
| 2026-05-04 19:46 | 35.42505 | 27.14773 | 33 ft | 11 kts | 136° |
| 2026-05-04 19:46 | 35.42479 | 27.14834 | 35 ft | 6 kts | 53° |
| 2026-05-04 19:46 | 35.42518 | 27.14850 | 31 ft | 5 kts | 10° |
| 2026-05-04 19:47 | 35.42560 | 27.14856 | 31 ft | 7 kts | 352° |
| 2026-05-04 19:47 | 35.42588 | 27.14816 | 31 ft | 5 kts | 269° |
| 2026-05-04 19:47 | 35.42599 | 27.14792 | 31 ft | 4 kts | 315° |
| 2026-05-04 19:47 | 35.42606 | 27.14784 | 31 ft | 0 kts | 314° |